Time;durP1;ratioP1;P1;durP2;ratioP2;P2;SDS_P1;SDS_P2;PMS_P1;PMS_P2;Temp;Humidity;BMP_temperature;BMP_pressure;BME280_temperature;BME280_humidity;BME280_pressure;Samples;Min_cycle;Max_cycle;Signal;HPM_P1;HPM_P2
2022/10/28 00:02:24;;;;;;;0.73;0.73;;;;;;;13.63;88.91;96357.75;4342183;32;20185;-65
2022/10/28 00:04:49;;;;;;;1.63;0.73;;;;;;;13.73;87.93;96359.47;4342423;32;20198;-65
2022/10/28 00:07:14;;;;;;;0.57;0.57;;;;;;;13.52;88.71;96369.62;4346132;33;20201;-65
2022/10/28 00:09:40;;;;;;;2.33;1.43;;;;;;;13.75;87.92;96360.78;4333121;33;20177;-65
2022/10/28 00:12:05;;;;;;;1.57;0.87;;;;;;;13.65;88.24;96360.94;4342526;32;20278;-64
2022/10/28 00:14:31;;;;;;;1.50;1.10;;;;;;;13.53;88.60;96359.75;4340049;32;20204;-64
2022/10/28 00:16:56;;;;;;;0.87;0.87;;;;;;;13.52;88.69;96358.94;4338132;32;20264;-64
2022/10/28 00:19:21;;;;;;;0.43;0.43;;;;;;;13.67;87.27;96364.09;4330487;33;20295;-65
2022/10/28 00:21:47;;;;;;;1.30;0.80;;;;;;;13.65;86.73;96352.13;4340778;32;20196;-65
2022/10/28 00:24:13;;;;;;;2.20;0.97;;;;;;;13.65;86.82;96363.59;4344090;32;20189;-65
2022/10/28 00:26:41;;;;;;;1.17;1.07;;;;;;;13.58;87.04;96360.47;4327261;32;20190;-65
2022/10/28 00:29:15;;;;;;;1.57;1.37;;;;;;;13.48;87.42;96360.63;4333328;33;20185;-65
2022/10/28 00:31:41;;;;;;;0.90;0.90;;;;;;;13.56;86.72;96365.31;4331580;32;20195;-65
2022/10/28 00:34:10;;;;;;;6.83;1.70;;;;;;;13.64;86.00;96356.69;4346868;32;20185;-65
2022/10/28 00:36:38;;;;;;;1.03;1.03;;;;;;;13.60;85.81;96355.66;4332963;32;20260;-64
2022/10/28 00:39:10;;;;;;;0.70;0.70;;;;;;;13.58;85.98;96360.47;4332870;32;20206;-65
2022/10/28 00:41:38;;;;;;;0.67;0.67;;;;;;;13.52;85.99;96353.62;4330073;32;20296;-65
2022/10/28 00:44:40;;;;;;;0.43;0.43;;;;;;;13.55;86.02;96355.72;4332488;32;20201;-66
2022/10/28 00:47:17;;;;;;;0.80;0.77;;;;;;;13.54;85.59;96353.34;4331083;32;20280;-65
2022/10/28 00:49:45;;;;;;;0.90;0.90;;;;;;;13.31;86.35;96347.75;4341065;32;20189;-65
2022/10/28 00:52:17;;;;;;;0.60;0.60;;;;;;;13.10;86.08;96349.03;4338891;32;20216;-65
2022/10/28 00:54:44;;;;;;;0.60;0.60;;;;;;;13.04;86.17;96345.62;4346841;32;20208;-65
2022/10/28 00:57:15;;;;;;;1.07;0.77;;;;;;;13.07;86.33;96333.63;4334311;32;20191;-65
2022/10/28 00:59:47;;;;;;;0.63;0.63;;;;;;;13.22;85.68;96340.69;4334976;32;20203;-65
2022/10/28 01:02:13;;;;;;;0.70;0.70;;;;;;;13.11;85.83;96341.81;4350131;32;20174;-65
2022/10/28 01:04:38;;;;;;;0.40;0.40;;;;;;;13.22;85.14;96336.16;4338475;32;20216;-65
2022/10/28 01:07:05;;;;;;;1.17;1.00;;;;;;;13.15;85.15;96342.84;4340371;32;20194;-65
2022/10/28 01:09:35;;;;;;;3.70;0.90;;;;;;;13.06;85.10;96338.16;4311772;32;20185;-65
2022/10/28 01:12:50;;;;;;;0.83;0.83;;;;;;;12.92;85.32;96337.22;4341786;32;20248;-66
2022/10/28 01:15:43;;;;;;;0.70;0.70;;;;;;;13.09;84.94;96332.25;4328961;32;20197;-65
2022/10/28 01:18:48;;;;;;;1.03;0.50;;;;;;;13.27;84.17;96332.63;4335441;32;20342;-65
2022/10/28 01:21:41;;;;;;;1.33;1.03;;;;;;;13.16;84.73;96333.81;4303256;33;20188;-67
2022/10/28 01:24:55;;;;;;;0.70;0.70;;;;;;;13.19;84.51;96331.38;4312822;32;20300;-67
2022/10/28 01:27:48;;;;;;;0.90;0.90;;;;;;;13.14;84.45;96327.94;4342722;32;20189;-67
2022/10/28 01:30:24;;;;;;;0.37;0.37;;;;;;;13.16;84.40;96315.16;4321851;32;20212;-67
2022/10/28 01:33:08;;;;;;;0.67;0.67;;;;;;;13.13;84.72;96323.69;4332142;32;20199;-67
2022/10/28 01:35:52;;;;;;;0.40;0.40;;;;;;;13.22;83.97;96322.81;4320909;32;20182;-67
2022/10/28 01:38:55;;;;;;;1.00;1.00;;;;;;;13.08;84.49;96320.03;4327264;32;20174;-67
2022/10/28 01:41:38;;;;;;;0.20;0.20;;;;;;;13.23;83.52;96326.28;4291919;33;20196;-67
2022/10/28 01:44:20;;;;;;;0.40;0.40;;;;;;;13.09;83.73;96326.91;4317637;32;20188;-66
2022/10/28 01:47:19;;;;;;;0.67;0.50;;;;;;;13.18;83.59;96326.34;4299126;32;20197;-65
2022/10/28 01:49:58;;;;;;;0.20;0.20;;;;;;;13.14;84.21;96325.28;4292745;32;20189;-66
2022/10/28 01:52:29;;;;;;;0.60;0.57;;;;;;;12.98;84.61;96317.47;4330121;32;20193;-66
2022/10/28 01:55:12;;;;;;;0.80;0.80;;;;;;;13.02;84.57;96328.34;4300860;33;20202;-66
2022/10/28 01:58:00;;;;;;;0.57;0.33;;;;;;;13.04;83.89;96329.66;4300251;33;20178;-66
2022/10/28 02:00:27;;;;;;;9.83;0.60;;;;;;;13.03;84.34;96333.41;4314398;33;20186;-65
2022/10/28 02:02:54;;;;;;;0.30;0.30;;;;;;;12.92;84.50;96321.25;4328892;32;20221;-66
2022/10/28 02:05:40;;;;;;;4.37;1.13;;;;;;;12.97;84.47;96323.88;4341294;32;20192;-66
2022/10/28 02:08:36;;;;;;;0.37;0.37;;;;;;;13.03;84.49;96322.75;4325943;32;21778;-66
2022/10/28 02:11:22;;;;;;;0.30;0.30;;;;;;;12.98;84.05;96316.66;4307760;32;20213;-66
2022/10/28 02:14:15;;;;;;;0.67;0.67;;;;;;;13.01;83.31;96322.22;4313866;32;20231;-66
2022/10/28 02:16:58;;;;;;;4.67;1.00;;;;;;;13.07;82.99;96315.78;4318255;32;20196;-65
2022/10/28 02:20:00;;;;;;;0.30;0.30;;;;;;;12.99;83.49;96313.72;4340688;32;20185;-65
2022/10/28 02:22:42;;;;;;;0.57;0.57;;;;;;;13.05;83.36;96325.91;4321144;32;20181;-65
2022/10/28 02:25:18;;;;;;;0.60;0.60;;;;;;;12.99;83.44;96321.72;4336628;32;20283;-66
2022/10/28 02:28:16;;;;;;;0.63;0.63;;;;;;;12.93;83.41;96317.50;4355696;32;20180;-66
2022/10/28 02:31:02;;;;;;;0.87;0.53;;;;;;;12.93;83.47;96324.72;4353375;32;20225;-66
2022/10/28 02:33:34;;;;;;;1.70;0.60;;;;;;;12.92;83.04;96328.44;4293453;32;20182;-66
2022/10/28 02:36:06;;;;;;;2.63;0.63;;;;;;;12.88;82.91;96322.91;4345278;32;20245;-66
2022/10/28 02:38:38;;;;;;;0.20;0.20;;;;;;;12.88;83.24;96319.47;4321388;32;20235;-66
2022/10/28 02:41:23;;;;;;;0.57;0.57;;;;;;;12.89;82.62;96321.81;4281374;32;20264;-65
2022/10/28 02:43:56;;;;;;;0.30;0.30;;;;;;;12.95;82.00;96315.38;4323361;32;20215;-66
2022/10/28 02:46:28;;;;;;;1.40;1.30;;;;;;;13.03;81.53;96317.41;4308927;32;20230;-66
2022/10/28 02:49:03;;;;;;;0.57;0.57;;;;;;;12.90;81.96;96310.09;4316964;32;20190;-66
2022/10/28 02:51:45;;;;;;;0.40;0.40;;;;;;;12.94;81.77;96319.09;4316832;33;20213;-66
2022/10/28 02:54:46;;;;;;;1.17;1.07;;;;;;;12.98;81.58;96308.69;4330420;32;20275;-66
2022/10/28 02:57:28;;;;;;;0.20;0.20;;;;;;;13.02;81.75;96305.16;4324389;32;20181;-66
2022/10/28 03:00:09;;;;;;;1.37;0.83;;;;;;;12.88;81.71;96311.47;4326780;32;20220;-66
2022/10/28 03:02:39;;;;;;;3.83;0.43;;;;;;;12.93;81.75;96306.88;4300672;32;20208;-65
2022/10/28 03:05:07;;;;;;;0.20;0.20;;;;;;;13.00;81.63;96307.31;4318516;32;20240;-66
2022/10/28 03:07:34;;;;;;;1.90;0.53;;;;;;;12.91;81.53;96311.69;4330662;32;20217;-66
2022/10/28 03:10:03;;;;;;;0.37;0.37;;;;;;;12.99;81.38;96305.75;4325410;32;20200;-66
2022/10/28 03:12:30;;;;;;;2.73;0.43;;;;;;;12.85;82.54;96306.72;4340286;32;20189;-66
2022/10/28 03:14:55;;;;;;;0.50;0.50;;;;;;;12.86;82.74;96306.44;4325009;32;20208;-66
2022/10/28 03:17:22;;;;;;;5.13;0.50;;;;;;;12.93;82.14;96300.75;4310024;32;20273;-66
2022/10/28 03:19:53;;;;;;;0.10;0.10;;;;;;;12.85;81.16;96298.72;4327181;32;20192;-66
2022/10/28 03:22:20;;;;;;;0.30;0.30;;;;;;;12.89;81.04;96305.03;4326774;32;20221;-66
2022/10/28 03:24:47;;;;;;;0.23;0.23;;;;;;;12.93;81.09;96298.88;4321501;32;20182;-65
2022/10/28 03:27:13;;;;;;;0.50;0.50;;;;;;;12.92;80.80;96302.59;4331960;32;20216;-65
2022/10/28 03:29:40;;;;;;;1.13;0.80;;;;;;;12.97;80.67;96307.09;4309760;32;20197;-65
2022/10/28 03:32:09;;;;;;;0.67;0.67;;;;;;;12.92;80.71;96304.47;4308039;33;20278;-65
2022/10/28 03:34:36;;;;;;;0.40;0.40;;;;;;;12.73;81.53;96305.22;4308461;32;20185;-65
2022/10/28 03:37:02;;;;;;;4.37;0.80;;;;;;;12.77;81.37;96305.44;4310753;32;20190;-65
2022/10/28 03:39:30;;;;;;;1.03;0.60;;;;;;;12.90;81.14;96309.28;4321175;32;20215;-65
2022/10/28 03:41:57;;;;;;;0.30;0.30;;;;;;;12.73;81.20;96307.88;4345755;32;20202;-65
2022/10/28 03:44:23;;;;;;;1.23;0.93;;;;;;;12.65;81.31;96308.50;4327985;32;20189;-65
2022/10/28 03:46:48;;;;;;;0.17;0.17;;;;;;;12.49;81.60;96304.37;4292143;33;20190;-66
2022/10/28 03:49:15;;;;;;;3.70;1.00;;;;;;;12.67;81.54;96303.69;4329591;32;20291;-66
2022/10/28 03:51:42;;;;;;;0.70;0.70;;;;;;;12.63;81.41;96302.66;4336310;32;20272;-66
2022/10/28 03:54:08;;;;;;;0.37;0.37;;;;;;;12.63;81.89;96307.19;4356096;32;20329;-66
2022/10/28 03:56:33;;;;;;;0.43;0.43;;;;;;;12.80;81.10;96307.53;4335772;32;20209;-65
2022/10/28 03:58:59;;;;;;;0.50;0.50;;;;;;;12.70;80.95;96299.66;4314215;33;20189;-66
2022/10/28 04:01:26;;;;;;;0.17;0.17;;;;;;;12.69;80.87;96300.72;4317142;33;20194;-66
2022/10/28 04:03:52;;;;;;;0.20;0.20;;;;;;;12.76;80.87;96306.53;4329958;32;20185;-66
2022/10/28 04:06:18;;;;;;;1.43;0.93;;;;;;;12.74;81.05;96308.66;4344874;32;20197;-66
2022/10/28 04:08:47;;;;;;;0.70;0.70;;;;;;;12.73;80.72;96302.53;4348510;32;20185;-65
2022/10/28 04:11:13;;;;;;;0.40;0.40;;;;;;;12.74;80.98;96306.78;4343973;32;20208;-65
2022/10/28 04:13:39;;;;;;;0.60;0.60;;;;;;;12.76;80.87;96305.72;4319927;32;20255;-65
2022/10/28 04:16:08;;;;;;;0.60;0.60;;;;;;;12.58;81.63;96305.37;4319814;32;20209;-65
2022/10/28 04:18:35;;;;;;;0.70;0.50;;;;;;;12.70;81.57;96304.97;4324343;32;20219;-66
2022/10/28 04:21:04;;;;;;;0.37;0.37;;;;;;;12.74;81.15;96309.47;4344093;32;20205;-66
2022/10/28 04:23:29;;;;;;;1.13;0.40;;;;;;;12.73;80.58;96312.41;4319105;32;20196;-65
2022/10/28 04:25:56;;;;;;;0.23;0.23;;;;;;;12.80;81.01;96302.22;4346687;32;20205;-66
2022/10/28 04:28:26;;;;;;;0.57;0.57;;;;;;;12.84;80.14;96307.78;4344780;32;20185;-66
2022/10/28 04:30:54;;;;;;;1.83;0.50;;;;;;;12.76;80.61;96303.84;4307494;32;20295;-65
2022/10/28 04:33:22;;;;;;;0.47;0.47;;;;;;;12.58;80.93;96300.03;4308477;32;20264;-66
2022/10/28 04:35:49;;;;;;;3.70;1.00;;;;;;;12.66;80.49;96306.63;4321117;32;20189;-66
2022/10/28 04:38:16;;;;;;;0.10;0.10;;;;;;;12.73;80.21;96307.06;4330906;32;20185;-66
2022/10/28 04:40:45;;;;;;;0.37;0.37;;;;;;;12.57;81.13;96306.44;4332827;32;20202;-66
2022/10/28 04:43:12;;;;;;;0.33;0.33;;;;;;;12.53;81.23;96305.41;4339434;32;20304;-66
2022/10/28 04:45:39;;;;;;;0.20;0.20;;;;;;;12.66;81.36;96311.97;4334481;32;20274;-65
2022/10/28 04:48:04;;;;;;;6.50;0.83;;;;;;;12.79;80.69;96307.81;4325739;32;20200;-65
2022/10/28 04:50:31;;;;;;;1.70;0.53;;;;;;;12.65;80.92;96311.16;4329836;32;20194;-65
2022/10/28 04:52:57;;;;;;;1.50;0.63;;;;;;;12.67;80.88;96305.56;4320372;32;20208;-65
2022/10/28 04:55:24;;;;;;;0.70;0.70;;;;;;;12.81;80.33;96301.16;4335320;32;20268;-65
2022/10/28 04:57:59;;;;;;;0.17;0.17;;;;;;;12.70;80.34;96303.09;4329303;32;20197;-65
2022/10/28 05:00:28;;;;;;;0.43;0.43;;;;;;;12.68;80.24;96299.94;4317578;33;20253;-65
2022/10/28 05:02:56;;;;;;;0.87;0.77;;;;;;;12.71;80.59;96307.34;4312737;32;20201;-65
2022/10/28 05:05:23;;;;;;;0.60;0.60;;;;;;;12.77;80.20;96296.66;4332943;32;20217;-65
2022/10/28 05:07:48;;;;;;;0.53;0.53;;;;;;;12.80;79.97;96301.44;4283542;33;20194;-65
2022/10/28 05:10:15;;;;;;;0.83;0.83;;;;;;;12.83;79.85;96298.22;4286457;33;20189;-65
2022/10/28 05:12:46;;;;;;;0.47;0.47;;;;;;;12.79;80.34;96300.62;4301598;33;20202;-64
2022/10/28 05:15:14;;;;;;;1.37;0.87;;;;;;;12.65;80.68;96299.72;4298850;33;20368;-64
2022/10/28 05:17:43;;;;;;;0.60;0.60;;;;;;;12.56;81.03;96296.87;4286114;33;20193;-64
2022/10/28 05:20:14;;;;;;;0.50;0.50;;;;;;;12.54;80.91;96295.56;4312547;33;20189;-64
2022/10/28 05:22:46;;;;;;;1.40;0.70;;;;;;;12.67;80.37;96292.25;4327173;32;20292;-64
2022/10/28 05:25:13;;;;;;;0.40;0.40;;;;;;;12.60;80.67;96291.78;4282334;32;20231;-63
2022/10/28 05:27:41;;;;;;;0.70;0.70;;;;;;;12.46;81.16;96285.53;4303864;33;20185;-63
2022/10/28 05:30:07;;;;;;;0.73;0.73;;;;;;;12.33;81.49;96287.75;4289724;32;20213;-64
2022/10/28 05:32:40;;;;;;;0.37;0.37;;;;;;;12.30;81.56;96290.97;4315825;32;20208;-64
2022/10/28 05:35:08;;;;;;;0.43;0.43;;;;;;;12.33;81.76;96286.97;4318223;32;20213;-64
2022/10/28 05:37:36;;;;;;;0.47;0.47;;;;;;;12.32;81.88;96291.50;4281779;33;20233;-64
2022/10/28 05:40:23;;;;;;;0.93;0.93;;;;;;;12.43;81.21;96291.44;4304533;33;20244;-64
2022/10/28 05:42:49;;;;;;;0.50;0.50;;;;;;;12.38;81.53;96285.06;4310435;32;20205;-64
2022/10/28 05:45:15;;;;;;;0.50;0.50;;;;;;;12.43;81.57;96289.56;4337026;32;20197;-64
2022/10/28 05:47:44;;;;;;;7.40;1.17;;;;;;;12.52;81.14;96292.38;4331872;32;20300;-64
2022/10/28 05:50:13;;;;;;;2.27;0.60;;;;;;;12.60;80.66;96291.78;4326712;32;20194;-64
2022/10/28 05:52:45;;;;;;;0.83;0.60;;;;;;;12.59;80.83;96292.84;4311025;33;20257;-64
2022/10/28 05:55:11;;;;;;;2.00;0.67;;;;;;;12.62;80.96;96289.63;4298368;32;20282;-64
2022/10/28 05:57:37;;;;;;;0.33;0.33;;;;;;;12.53;80.78;96286.00;4317949;32;20236;-64
2022/10/28 06:00:04;;;;;;;0.50;0.50;;;;;;;12.45;81.25;96291.94;4312529;33;20190;-64
2022/10/28 06:02:31;;;;;;;1.73;0.63;;;;;;;12.50;81.42;96292.66;4313528;32;20241;-64
2022/10/28 06:04:57;;;;;;;0.50;0.43;;;;;;;12.64;80.83;96293.59;4334593;32;20193;-64
2022/10/28 06:07:24;;;;;;;0.67;0.67;;;;;;;12.63;80.95;96286.69;4314925;32;20193;-65
2022/10/28 06:09:51;;;;;;;0.50;0.50;;;;;;;12.63;80.88;96301.88;4326401;32;20236;-64
2022/10/28 06:12:17;;;;;;;1.80;1.33;;;;;;;12.69;80.86;96306.06;4347338;32;20210;-64
2022/10/28 06:14:43;;;;;;;0.40;0.40;;;;;;;12.74;80.78;96296.16;4328047;32;20264;-64
2022/10/28 06:17:11;;;;;;;0.73;0.43;;;;;;;12.77;80.21;96299.31;4295245;33;20299;-64
2022/10/28 06:19:37;;;;;;;1.50;1.17;;;;;;;12.77;80.46;96302.78;4309161;32;20197;-64
2022/10/28 06:22:05;;;;;;;0.67;0.67;;;;;;;12.89;79.79;96313.81;4343348;32;20189;-64
2022/10/28 06:24:33;;;;;;;8.30;0.87;;;;;;;12.94;79.68;96313.78;4329730;32;20189;-64
2022/10/28 06:27:01;;;;;;;2.63;0.80;;;;;;;13.02;79.28;96313.16;4338002;32;20226;-64
2022/10/28 06:29:28;;;;;;;44.37;4.03;;;;;;;12.98;79.36;96314.81;4333070;32;20216;-43
2022/10/28 06:31:56;;;;;;;1.80;1.00;;;;;;;14.50;100.00;96311.91;4339289;32;20257;-42
2022/10/28 06:34:23;;;;;;;0.80;0.80;;;;;;;14.94;100.00;96316.75;4312195;32;20264;-43
2022/10/28 06:36:49;;;;;;;0.37;0.37;;;;;;;15.04;100.00;96321.88;4311192;32;20224;-42
2022/10/28 06:39:15;;;;;;;1.07;0.83;;;;;;;15.42;90.48;96308.28;4332567;32;20185;-43
2022/10/28 06:41:43;;;;;;;0.40;0.40;;;;;;;15.89;85.07;96309.72;4351324;32;20336;-43
2022/10/28 06:44:10;;;;;;;1.23;1.00;;;;;;;16.17;81.74;96312.28;4350776;32;20311;-42
2022/10/28 06:46:37;;;;;;;0.50;0.50;;;;;;;16.34;79.70;96312.41;4338631;32;20213;-45
2022/10/28 06:49:05;;;;;;;0.50;0.50;;;;;;;16.42;79.51;96315.12;4327484;32;20254;-45
2022/10/28 06:51:32;;;;;;;1.40;1.07;;;;;;;16.87;88.88;96312.41;4320000;32;20223;-43
2022/10/28 06:54:00;;;;;;;0.83;0.83;;;;;;;16.97;86.92;96311.34;4308169;32;20212;-45
2022/10/28 06:56:27;;;;;;;1.53;1.13;;;;;;;16.84;83.27;96311.13;4323356;32;20205;-45
2022/10/28 06:58:54;;;;;;;0.67;0.67;;;;;;;16.94;83.84;96309.28;4317506;32;20232;-60
2022/10/28 07:01:22;;;;;;;0.65;0.65;;;;;;;16.37;72.92;96315.28;4319938;32;20044;-59
2022/10/28 07:03:48;;;;;;;1.13;1.00;;;;;;;15.94;70.56;96322.19;4298546;33;20197;-66
2022/10/28 07:06:15;;;;;;;0.57;0.57;;;;;;;14.99;73.06;96324.63;4284865;33;20266;-59
2022/10/28 07:08:45;;;;;;;1.37;1.20;;;;;;;14.99;73.40;96321.19;4276264;33;20296;-61
2022/10/28 07:11:12;;;;;;;1.20;1.17;;;;;;;14.97;73.65;96326.81;4324174;32;20198;-59
2022/10/28 07:13:39;;;;;;;0.50;0.50;;;;;;;14.56;76.26;96336.63;4289158;33;20295;-61
2022/10/28 07:16:05;;;;;;;4.13;0.80;;;;;;;14.06;78.96;96339.81;4316750;32;20219;-60
2022/10/28 07:18:31;;;;;;;1.27;0.93;;;;;;;14.34;77.43;96335.34;4340810;32;20209;-60
2022/10/28 07:21:03;;;;;;;9.50;1.47;;;;;;;14.20;78.60;96334.53;4302001;32;20256;-60
2022/10/28 07:23:31;;;;;;;0.70;0.60;;;;;;;13.97;80.06;96346.09;4321954;32;20265;-61
2022/10/28 07:25:58;;;;;;;0.47;0.43;;;;;;;13.86;80.49;96345.44;4328138;32;20209;-62
2022/10/28 07:28:26;;;;;;;2.20;0.77;;;;;;;13.80;80.68;96345.81;4285366;32;20255;-61
2022/10/28 07:31:01;;;;;;;3.40;1.27;;;;;;;13.86;81.03;96364.13;4313189;32;20190;-62
2022/10/28 07:33:30;;;;;;;0.97;0.97;;;;;;;13.95;80.42;96361.59;4357906;32;20199;-62
2022/10/28 07:35:57;;;;;;;1.30;1.20;;;;;;;13.76;81.35;96361.56;4314110;32;20189;-64
2022/10/28 07:38:25;;;;;;;1.13;0.97;;;;;;;13.84;81.19;96363.63;4293885;32;20205;-61
2022/10/28 07:40:50;;;;;;;0.90;0.80;;;;;;;13.97;80.68;96364.75;4320491;32;20232;-61
2022/10/28 07:43:16;;;;;;;7.87;1.70;;;;;;;13.99;80.78;96363.38;4308529;33;20187;-60
2022/10/28 07:45:44;;;;;;;0.90;0.90;;;;;;;14.02;79.64;96360.16;4294353;32;20249;-60
2022/10/28 07:48:14;;;;;;;0.53;0.53;;;;;;;14.06;79.85;96355.03;4326669;32;20225;-59
2022/10/28 07:50:40;;;;;;;10.47;1.70;;;;;;;14.21;80.41;96359.34;4333092;32;20193;-59
2022/10/28 07:53:09;;;;;;;2.77;0.97;;;;;;;14.27;80.00;96356.31;4334010;33;20250;-60
2022/10/28 07:55:36;;;;;;;0.90;0.90;;;;;;;14.33;79.21;96363.16;4308931;33;20269;-59
2022/10/28 07:58:02;;;;;;;3.80;1.13;;;;;;;14.40;79.32;96354.75;4315259;33;20197;-59
2022/10/28 08:00:29;;;;;;;0.70;0.70;;;;;;;14.55;78.03;96356.44;4300156;33;20206;-60
2022/10/28 08:02:56;;;;;;;1.50;1.17;;;;;;;14.59;79.40;96360.88;4304757;33;20236;-61
2022/10/28 08:05:21;;;;;;;1.27;1.17;;;;;;;14.72;77.46;96356.69;4344978;32;20247;-60
2022/10/28 08:07:48;;;;;;;1.03;1.00;;;;;;;14.76;77.62;96354.97;4331918;33;20181;-58
2022/10/28 08:10:14;;;;;;;3.70;1.63;;;;;;;14.90;75.11;96358.50;4285027;33;20195;-61
2022/10/28 08:12:41;;;;;;;1.87;1.77;;;;;;;14.97;76.01;96364.22;4304230;33;20206;-61
2022/10/28 08:15:09;;;;;;;2.90;1.43;;;;;;;15.04;76.35;96359.28;4309114;33;20201;-61
2022/10/28 08:17:34;;;;;;;0.63;0.63;;;;;;;15.16;74.14;96355.34;4310957;33;20232;-61
2022/10/28 08:20:01;;;;;;;0.57;0.57;;;;;;;15.26;72.56;96357.81;4317698;32;20238;-61
2022/10/28 08:22:28;;;;;;;1.03;0.30;;;;;;;15.32;73.47;96362.78;4299708;32;20201;-61
2022/10/28 08:24:53;;;;;;;0.90;0.83;;;;;;;15.40;72.34;96355.94;4295825;33;20213;-61
2022/10/28 08:27:19;;;;;;;0.80;0.80;;;;;;;15.54;71.68;96358.63;4315043;32;20201;-61
2022/10/28 08:29:46;;;;;;;0.43;0.43;;;;;;;15.65;70.96;96351.97;4310126;32;20217;-60
2022/10/28 08:32:11;;;;;;;0.70;0.70;;;;;;;15.69;70.92;96355.63;4286807;33;20270;-61
2022/10/28 08:34:38;;;;;;;0.63;0.63;;;;;;;15.82;69.98;96360.97;4283673;32;20201;-60
2022/10/28 08:37:04;;;;;;;1.43;0.70;;;;;;;15.94;69.32;96356.97;4307135;32;20197;-60
2022/10/28 08:39:31;;;;;;;0.70;0.70;;;;;;;16.09;68.57;96353.97;4317111;32;20217;-59
2022/10/28 08:42:24;;;;;;;1.60;0.60;;;;;;;16.15;68.93;96355.44;4291807;33;20204;-60
2022/10/28 08:45:14;;;;;;;0.73;0.73;;;;;;;16.21;69.24;96350.75;4299020;32;20189;-61
2022/10/28 08:48:10;;;;;;;0.60;0.60;;;;;;;16.29;69.67;96356.16;4299890;33;20349;-60
2022/10/28 08:51:22;;;;;;;7.73;1.03;;;;;;;16.44;69.12;96355.78;4293002;33;20253;-59
2022/10/28 08:53:57;;;;;;;0.63;0.43;;;;;;;16.43;69.69;96348.84;4253059;33;20199;-69
2022/10/28 08:56:46;;;;;;;1.70;0.80;;;;;;;16.52;70.18;96342.78;4294308;33;20239;-59
2022/10/28 08:59:20;;;;;;;0.93;0.93;;;;;;;16.57;70.18;96339.97;4293021;32;20197;-61
2022/10/28 09:01:50;;;;;;;0.60;0.60;;;;;;;16.62;71.64;96355.94;4290543;33;20265;-60
2022/10/28 09:04:40;;;;;;;0.40;0.40;;;;;;;16.70;71.24;96355.22;4318154;33;20189;-61
2022/10/28 09:07:17;;;;;;;0.50;0.50;;;;;;;16.73;71.11;96354.59;4283301;33;20198;-61
2022/10/28 09:09:47;;;;;;;1.40;0.93;;;;;;;16.77;70.48;96351.00;4265439;33;20244;-60
2022/10/28 09:12:37;;;;;;;0.30;0.30;;;;;;;16.86;70.63;96351.03;4276696;33;20193;-61
2022/10/28 09:15:57;;;;;;;0.40;0.40;;;;;;;16.94;70.52;96358.34;4245092;33;20253;-62
2022/10/28 09:18:47;;;;;;;1.27;0.70;;;;;;;17.00;70.36;96359.78;4300012;33;20197;-59
2022/10/28 09:21:39;;;;;;;0.80;0.80;;;;;;;17.09;69.86;96357.94;4305666;33;20216;-58
2022/10/28 09:24:17;;;;;;;3.67;0.90;;;;;;;17.13;70.70;96358.91;4308151;33;20295;-59
2022/10/28 09:27:18;;;;;;;0.77;0.70;;;;;;;17.21;70.35;96362.72;4327495;33;20280;-59
2022/10/28 09:30:25;;;;;;;1.40;0.40;;;;;;;17.21;69.36;96354.69;4299336;33;20189;-60
2022/10/28 09:33:39;;;;;;;0.40;0.40;;;;;;;17.26;69.73;96359.88;4278459;33;20202;-59
2022/10/28 09:36:16;;;;;;;0.27;0.27;;;;;;;17.34;69.88;96359.13;4290338;33;20256;-60
2022/10/28 09:38:46;;;;;;;0.30;0.30;;;;;;;17.37;69.89;96341.63;4309201;32;20194;-58
2022/10/28 09:41:22;;;;;;;0.30;0.30;;;;;;;17.39;69.14;96356.31;4311337;32;20193;-58
2022/10/28 09:44:24;;;;;;;0.60;0.60;;;;;;;17.36;69.26;96350.78;4333401;32;20199;-67
2022/10/28 09:46:58;;;;;;;0.30;0.30;;;;;;;17.34;70.00;96355.66;4332385;32;20194;-58
2022/10/28 09:49:29;;;;;;;0.40;0.40;;;;;;;17.39;70.05;96356.31;4331887;32;20190;-60
2022/10/28 09:52:22;;;;;;;0.50;0.50;;;;;;;17.41;70.53;96353.34;4314362;32;20257;-60
2022/10/28 09:54:52;;;;;;;0.47;0.47;;;;;;;17.51;71.58;96351.13;4282801;33;20201;-59
2022/10/28 09:57:29;;;;;;;0.87;0.47;;;;;;;17.55;72.07;96348.63;4301851;32;20208;-58
2022/10/28 09:59:59;;;;;;;0.73;0.73;;;;;;;17.71;70.02;96349.00;4294752;32;20248;-60
2022/10/28 10:02:29;;;;;;;0.60;0.60;;;;;;;17.74;71.81;96351.06;4298365;33;20229;-59
2022/10/28 10:04:59;;;;;;;0.60;0.50;;;;;;;17.76;71.74;96349.66;4306453;32;20217;-60
2022/10/28 10:07:43;;;;;;;0.30;0.30;;;;;;;17.80;71.59;96339.88;4307005;33;20196;-60
2022/10/28 10:10:54;;;;;;;0.60;0.60;;;;;;;17.86;71.01;96348.56;4276900;33;20378;-59
2022/10/28 10:13:28;;;;;;;0.83;0.83;;;;;;;17.93;70.48;96348.09;4279986;32;20202;-59
2022/10/28 10:16:06;;;;;;;0.47;0.47;;;;;;;18.06;70.69;96352.53;4264494;32;20277;-56
2022/10/28 10:18:33;;;;;;;2.60;1.00;;;;;;;18.16;71.00;96338.78;4280802;33;20197;-59
2022/10/28 10:21:01;;;;;;;0.23;0.23;;;;;;;18.32;70.04;96339.06;4306233;32;20186;-60
2022/10/28 10:23:36;;;;;;;1.07;0.50;;;;;;;18.36;70.06;96340.81;4303311;32;20196;-59
2022/10/28 10:26:10;;;;;;;1.13;0.97;;;;;;;18.49;69.68;96334.50;4270581;32;20240;-60
2022/10/28 10:28:44;;;;;;;1.97;1.43;;;;;;;18.51;69.43;96340.31;4286252;33;20233;-60
2022/10/28 10:31:19;;;;;;;0.83;0.83;;;;;;;18.58;69.28;96339.84;4310312;32;20260;-59
2022/10/28 10:33:51;;;;;;;0.60;0.60;;;;;;;18.63;67.90;96337.03;4309481;33;20194;-62
2022/10/28 10:36:22;;;;;;;0.77;0.77;;;;;;;18.68;68.57;96336.06;4312586;33;20245;-60
2022/10/28 10:38:55;;;;;;;0.40;0.40;;;;;;;18.71;70.40;96333.50;4277500;33;20290;-60
2022/10/28 10:41:34;;;;;;;0.30;0.30;;;;;;;18.78;68.55;96330.34;4312376;33;20217;-61
2022/10/28 10:44:23;;;;;;;0.47;0.47;;;;;;;18.79;68.42;96337.31;4282158;32;20216;-60
2022/10/28 10:47:04;;;;;;;1.80;0.73;;;;;;;18.80;67.24;96333.50;4297241;33;20254;-61
2022/10/28 10:49:32;;;;;;;0.63;0.63;;;;;;;18.85;66.65;96334.13;4272278;33;20201;-60
2022/10/28 10:52:06;;;;;;;0.40;0.40;;;;;;;18.92;67.69;96336.31;4289748;33;20195;-60
2022/10/28 10:54:36;;;;;;;1.17;0.53;;;;;;;18.96;68.01;96331.06;4310492;32;20203;-60
2022/10/28 10:57:36;;;;;;;0.87;0.87;;;;;;;18.99;67.12;96330.44;4258064;33;20204;-60
2022/10/28 11:00:07;;;;;;;0.50;0.50;;;;;;;19.07;68.62;96322.34;4304152;33;20185;-61
2022/10/28 11:02:38;;;;;;;0.37;0.37;;;;;;;19.10;66.36;96326.31;4292694;33;20228;-61
2022/10/28 11:05:08;;;;;;;0.30;0.30;;;;;;;19.11;68.20;96315.22;4269696;33;20225;-61
2022/10/28 11:07:36;;;;;;;3.77;0.80;;;;;;;19.06;67.69;96318.09;4282534;33;20233;-61
2022/10/28 11:10:18;;;;;;;0.80;0.80;;;;;;;19.14;68.48;96303.78;4298950;33;20223;-61
2022/10/28 11:13:04;;;;;;;3.20;0.73;;;;;;;19.18;69.85;96306.63;4316398;32;20193;-61
2022/10/28 11:15:35;;;;;;;0.40;0.40;;;;;;;19.20;67.48;96304.41;4286896;33;20201;-61
2022/10/28 11:18:21;;;;;;;0.53;0.53;;;;;;;19.22;69.18;96299.50;4314783;32;20211;-62
2022/10/28 11:21:12;;;;;;;0.60;0.60;;;;;;;19.25;70.32;96295.38;4313847;33;20265;-61
2022/10/28 11:23:56;;;;;;;0.30;0.30;;;;;;;19.19;67.43;96292.84;4307406;32;20205;-61
2022/10/28 11:26:23;;;;;;;0.63;0.63;;;;;;;19.23;68.34;96293.00;4315999;33;20210;-61
2022/10/28 11:29:14;;;;;;;0.30;0.30;;;;;;;19.22;72.28;96286.81;4312133;32;20193;-63
2022/10/28 11:32:07;;;;;;;1.17;0.50;;;;;;;19.34;66.59;96282.63;4301063;33;20190;-60
2022/10/28 11:35:11;;;;;;;0.83;0.60;;;;;;;19.34;68.92;96286.12;4296207;33;20194;-60
2022/10/28 11:37:57;;;;;;;0.57;0.57;;;;;;;19.34;68.00;96285.31;4314414;32;20287;-59
2022/10/28 11:41:03;;;;;;;0.50;0.50;;;;;;;19.34;69.16;96278.03;4301476;33;20258;-60
2022/10/28 11:43:59;;;;;;;1.03;0.93;;;;;;;19.42;68.35;96271.03;4311890;33;20194;-60
2022/10/28 11:46:47;;;;;;;0.20;0.20;;;;;;;19.41;70.20;96272.16;4290857;33;20233;-60
2022/10/28 11:49:49;;;;;;;0.63;0.63;;;;;;;19.52;67.43;96273.41;4290190;33;20202;-60
2022/10/28 11:52:32;;;;;;;0.40;0.40;;;;;;;19.66;67.18;96267.75;4299154;33;20212;-61
2022/10/28 11:55:27;;;;;;;0.43;0.43;;;;;;;19.66;67.02;96268.53;4301347;32;20296;-62
2022/10/28 11:58:21;;;;;;;0.50;0.50;;;;;;;19.65;69.20;96260.78;4302156;32;20235;-62
2022/10/28 12:01:32;;;;;;;0.40;0.40;;;;;;;19.75;66.14;96260.38;4292258;33;20213;-62
2022/10/28 12:04:16;;;;;;;0.10;0.10;;;;;;;19.81;64.96;96265.25;4281852;33;20216;-60
2022/10/28 12:07:08;;;;;;;0.37;0.20;;;;;;;19.96;62.57;96263.84;4297220;33;20281;-60
2022/10/28 12:10:00;;;;;;;0.33;0.33;;;;;;;19.92;62.86;96257.56;4296508;33;20191;-61